Time;durP1;ratioP1;P1;durP2;ratioP2;P2;SDS_P1;SDS_P2;PMS_P1;PMS_P2;Temp;Humidity;BMP_temperature;BMP_pressure;BME280_temperature;BME280_humidity;BME280_pressure;Samples;Min_cycle;Max_cycle;Signal;HPM_P1;HPM_P2
2022/04/03 00:00:50;;;;;;;45.38;31.15;;;;;;;-0.66;100.00;98263.25;2074074;28;20200;-71
2022/04/03 00:01:50;;;;;;;37.45;30.38;;;;;;;-0.66;100.00;98265.88;2073558;28;20168;-70
2022/04/03 00:02:52;;;;;;;39.27;30.73;;;;;;;-0.69;100.00;98266.38;2066644;28;20247;-71
2022/04/03 00:03:55;;;;;;;42.88;30.52;;;;;;;-0.67;100.00;98261.69;2066609;28;20730;-71
2022/04/03 00:04:56;;;;;;;42.43;31.53;;;;;;;-0.68;100.00;98260.09;2066603;28;20268;-71
2022/04/03 00:05:57;;;;;;;47.72;33.00;;;;;;;-0.70;100.00;98254.28;2065326;28;20749;-71
2022/04/03 00:07:00;;;;;;;45.03;34.07;;;;;;;-0.66;100.00;98265.88;2066012;28;20542;-71
2022/04/03 00:08:01;;;;;;;48.30;33.70;;;;;;;-0.67;100.00;98268.75;2066614;28;20201;-72
2022/04/03 00:09:03;;;;;;;45.53;35.25;;;;;;;-0.69;100.00;98255.91;2066862;28;20189;-71
2022/04/03 00:10:05;;;;;;;44.63;34.58;;;;;;;-0.70;100.00;98263.97;2065847;28;20223;-71
2022/04/03 00:11:07;;;;;;;55.30;36.15;;;;;;;-0.67;100.00;98266.91;2065995;28;20288;-71
2022/04/03 00:12:09;;;;;;;49.78;34.90;;;;;;;-0.64;100.00;98263.81;2073902;28;20196;-71
2022/04/03 00:13:14;;;;;;;55.22;37.25;;;;;;;-0.65;100.00;98264.06;2073898;28;20681;-71
2022/04/03 00:14:15;;;;;;;48.95;34.55;;;;;;;-0.62;100.00;98266.19;2065863;28;20564;-70
2022/04/03 00:15:18;;;;;;;49.35;35.83;;;;;;;-0.57;100.00;98261.81;2066048;28;20193;-71
2022/04/03 00:16:20;;;;;;;52.40;36.67;;;;;;;-0.50;100.00;98269.50;2066775;28;20197;-70
2022/04/03 00:17:22;;;;;;;53.05;36.35;;;;;;;-0.55;100.00;98266.78;2066524;28;20194;-71
2022/04/03 00:18:22;;;;;;;49.80;36.58;;;;;;;-0.49;100.00;98263.22;2066442;28;20201;-69
2022/04/03 00:19:26;;;;;;;54.28;36.15;;;;;;;-0.50;100.00;98264.25;2065142;28;20205;-72
2022/04/03 00:20:28;;;;;;;44.58;36.83;;;;;;;-0.45;100.00;98266.91;2065909;28;20219;-69
2022/04/03 00:21:29;;;;;;;50.33;37.53;;;;;;;-0.45;100.00;98258.25;2065356;28;20217;-70
2022/04/03 00:22:31;;;;;;;49.33;36.83;;;;;;;-0.52;100.00;98262.88;2057795;28;20241;-69
2022/04/03 00:23:31;;;;;;;49.10;35.97;;;;;;;-0.51;100.00;98267.91;2065669;28;20209;-69
2022/04/03 00:24:33;;;;;;;48.47;39.10;;;;;;;-0.53;100.00;98263.94;2066710;28;20650;-69
2022/04/03 00:25:34;;;;;;;54.58;36.92;;;;;;;-0.51;100.00;98261.88;2065723;28;20201;-70
2022/04/03 00:26:36;;;;;;;48.28;37.17;;;;;;;-0.52;100.00;98271.56;2057783;28;20190;-70
2022/04/03 00:27:39;;;;;;;56.60;37.47;;;;;;;-0.49;100.00;98259.81;2057815;28;20292;-70
2022/04/03 00:28:43;;;;;;;54.65;37.58;;;;;;;-0.47;100.00;98270.81;2065870;28;20189;-71
2022/04/03 00:29:43;;;;;;;53.58;38.78;;;;;;;-0.47;100.00;98262.97;2065324;28;20200;-70
2022/04/03 00:30:46;;;;;;;51.97;38.07;;;;;;;-0.51;100.00;98259.25;2066138;28;20240;-69
2022/04/03 00:31:48;;;;;;;51.67;36.65;;;;;;;-0.49;100.00;98262.44;2065827;28;20223;-70
2022/04/03 00:32:50;;;;;;;55.28;36.75;;;;;;;-0.45;100.00;98259.06;2065970;28;20213;-70
2022/04/03 00:33:53;;;;;;;53.53;38.75;;;;;;;-0.41;100.00;98264.63;2066448;28;20531;-70
2022/04/03 00:34:56;;;;;;;55.75;37.15;;;;;;;-0.40;100.00;98263.59;2065652;28;20223;-70
2022/04/03 00:35:58;;;;;;;52.65;37.75;;;;;;;-0.35;100.00;98263.63;2065482;28;20196;-71
2022/04/03 00:37:00;;;;;;;56.20;38.90;;;;;;;-0.31;100.00;98257.66;2073786;28;20188;-72
2022/04/03 00:38:01;;;;;;;51.67;38.70;;;;;;;-0.31;100.00;98264.72;2065683;28;20204;-69
2022/04/03 00:39:02;;;;;;;50.77;37.47;;;;;;;-0.35;100.00;98261.00;2057295;28;20201;-71
2022/04/03 00:40:05;;;;;;;58.00;37.90;;;;;;;-0.35;100.00;98258.38;2065704;28;20193;-70
2022/04/03 00:41:08;;;;;;;66.97;39.10;;;;;;;-0.35;100.00;98261.81;2066300;28;20735;-69
2022/04/03 00:42:11;;;;;;;55.03;39.13;;;;;;;-0.31;100.00;98264.72;2066544;28;20651;-70
2022/04/03 00:43:16;;;;;;;56.42;39.55;;;;;;;-0.33;100.00;98261.56;2066053;28;20200;-69
2022/04/03 00:44:18;;;;;;;46.83;36.53;;;;;;;-0.32;100.00;98258.69;2066275;28;20238;-71
2022/04/03 00:45:20;;;;;;;49.57;35.83;;;;;;;-0.34;100.00;98263.41;2066284;28;20250;-70
2022/04/03 00:46:21;;;;;;;49.88;36.92;;;;;;;-0.31;100.00;98257.66;2073727;28;20200;-70
2022/04/03 00:47:25;;;;;;;49.15;35.10;;;;;;;-0.31;100.00;98262.91;2073980;28;20196;-70
2022/04/03 00:48:27;;;;;;;57.53;36.97;;;;;;;-0.23;100.00;98263.50;2073713;28;20597;-71
2022/04/03 00:49:30;;;;;;;48.45;34.53;;;;;;;-0.21;100.00;98261.44;2065612;28;20252;-70
2022/04/03 00:50:31;;;;;;;47.13;34.78;;;;;;;-0.25;100.00;98258.53;2065698;28;20193;-70
2022/04/03 00:51:34;;;;;;;47.10;34.20;;;;;;;-0.20;100.00;98260.38;2073435;28;20224;-71
2022/04/03 00:52:35;;;;;;;49.20;36.03;;;;;;;-0.18;100.00;98256.47;2066140;28;20205;-71
2022/04/03 00:53:37;;;;;;;50.63;33.80;;;;;;;-0.21;100.00;98256.97;2066176;28;20276;-71
2022/04/03 00:54:38;;;;;;;42.28;34.20;;;;;;;-0.16;100.00;98256.25;2066189;28;20184;-71
2022/04/03 00:55:42;;;;;;;42.55;35.63;;;;;;;-0.11;100.00;98259.69;2066334;28;20193;-70
2022/04/03 00:56:43;;;;;;;39.60;34.00;;;;;;;-0.17;100.00;98260.72;2066350;28;20200;-71
2022/04/03 00:57:46;;;;;;;38.90;32.93;;;;;;;-0.23;100.00;98258.28;2066320;28;20213;-70
2022/04/03 00:58:48;;;;;;;46.28;32.78;;;;;;;-0.15;100.00;98255.22;2066339;28;20487;-71
2022/04/03 00:59:51;;;;;;;40.10;31.35;;;;;;;-0.23;100.00;98264.31;2065124;28;20236;-71
2022/04/03 01:00:52;;;;;;;35.15;30.98;;;;;;;-0.26;100.00;98254.31;2065783;28;20196;-70
2022/04/03 01:01:53;;;;;;;38.93;30.93;;;;;;;-0.34;100.00;98257.38;2066238;28;20224;-71
2022/04/03 01:02:55;;;;;;;45.97;31.02;;;;;;;-0.43;100.00;98264.88;2066343;28;20185;-70
2022/04/03 01:03:59;;;;;;;39.90;31.10;;;;;;;-0.48;100.00;98267.41;2065972;28;20227;-71
2022/04/03 01:05:01;;;;;;;37.42;33.22;;;;;;;-0.49;100.00;98265.03;2065739;28;20204;-70
2022/04/03 01:06:03;;;;;;;40.45;31.80;;;;;;;-0.37;100.00;98268.31;2064599;28;20205;-70
2022/04/03 01:07:04;;;;;;;42.72;31.23;;;;;;;-0.42;100.00;98260.41;2065907;28;20173;-70
2022/04/03 01:08:06;;;;;;;40.53;31.27;;;;;;;-0.50;100.00;98263.47;2066107;28;20671;-70
2022/04/03 01:09:09;;;;;;;44.83;32.03;;;;;;;-0.58;100.00;98262.84;2065969;28;20204;-71
2022/04/03 01:10:13;;;;;;;41.58;35.17;;;;;;;-0.58;100.00;98260.22;2066039;28;20196;-70
2022/04/03 01:11:15;;;;;;;38.65;33.45;;;;;;;-0.57;100.00;98259.19;2066103;28;20193;-70
2022/04/03 01:12:16;;;;;;;39.83;34.13;;;;;;;-0.51;100.00;98267.13;2065307;28;20189;-70
2022/04/03 01:13:17;;;;;;;39.53;35.30;;;;;;;-0.52;100.00;98262.88;2065504;28;20197;-70
2022/04/03 01:14:30;;;;;;;40.53;34.13;;;;;;;-0.49;100.00;98263.22;2066060;28;20643;-71
2022/04/03 01:15:33;;;;;;;38.35;32.28;;;;;;;-0.50;100.00;98259.00;2066110;28;20642;-71
2022/04/03 01:16:37;;;;;;;38.67;33.55;;;;;;;-0.51;100.00;98259.25;2066227;28;20193;-70
2022/04/03 01:17:39;;;;;;;43.03;33.22;;;;;;;-0.49;100.00;98259.81;2066190;28;20192;-70
2022/04/03 01:18:43;;;;;;;49.83;33.28;;;;;;;-0.49;100.00;98267.66;2064662;28;20360;-70
2022/04/03 01:19:44;;;;;;;36.50;32.70;;;;;;;-0.50;100.00;98261.63;2057547;28;20296;-71
2022/04/03 01:20:45;;;;;;;39.80;35.27;;;;;;;-0.53;100.00;98256.84;2065591;28;20188;-71
2022/04/03 01:21:46;;;;;;;41.53;34.22;;;;;;;-0.49;100.00;98262.44;2065615;28;20232;-70
2022/04/03 01:22:51;;;;;;;42.83;33.27;;;;;;;-0.50;100.00;98266.09;2066069;28;20181;-70
2022/04/03 01:23:54;;;;;;;40.60;32.33;;;;;;;-0.41;100.00;98268.03;2065158;28;20255;-70
2022/04/03 01:24:59;;;;;;;37.60;33.03;;;;;;;-0.51;100.00;98262.66;2065395;28;20304;-71
2022/04/03 01:26:00;;;;;;;36.85;31.13;;;;;;;-0.44;100.00;98273.75;2065536;28;20185;-70
2022/04/03 01:27:02;;;;;;;36.73;31.70;;;;;;;-0.49;100.00;98272.91;2065973;28;20217;-70
2022/04/03 01:28:03;;;;;;;35.40;31.98;;;;;;;-0.44;100.00;98278.19;2065248;28;20216;-70
2022/04/03 01:29:05;;;;;;;34.03;30.50;;;;;;;-0.55;100.00;98268.63;2065389;28;20197;-71
2022/04/03 01:30:09;;;;;;;34.67;31.08;;;;;;;-0.62;100.00;98266.97;2066172;28;20197;-71
2022/04/03 01:31:13;;;;;;;38.35;31.77;;;;;;;-0.69;100.00;98266.38;2065883;28;20192;-70
2022/04/03 01:32:16;;;;;;;34.85;31.17;;;;;;;-0.65;100.00;98266.66;2065177;28;20224;-70
2022/04/03 01:33:19;;;;;;;35.25;28.40;;;;;;;-0.71;100.00;98268.41;2065283;28;20220;-70
2022/04/03 01:34:20;;;;;;;33.60;28.63;;;;;;;-0.74;100.00;98263.69;2066061;28;20281;-71
2022/04/03 01:35:23;;;;;;;34.40;30.10;;;;;;;-0.75;100.00;98269.97;2065159;28;20204;-70
2022/04/03 01:36:25;;;;;;;33.03;29.42;;;;;;;-0.84;100.00;98268.78;2065173;28;20221;-71
2022/04/03 01:37:29;;;;;;;34.03;28.33;;;;;;;-0.89;100.00;98266.09;2064633;28;20228;-71
2022/04/03 01:38:31;;;;;;;40.03;29.00;;;;;;;-0.85;100.00;98269.81;2057331;28;20573;-70
2022/04/03 01:39:34;;;;;;;34.97;28.30;;;;;;;-0.80;100.00;98269.88;2065337;28;20191;-70
2022/04/03 01:40:36;;;;;;;31.50;28.15;;;;;;;-0.83;100.00;98265.13;2065875;28;20197;-70
2022/04/03 01:41:38;;;;;;;32.17;28.70;;;;;;;-0.85;100.00;98275.06;2065235;28;20750;-70
2022/04/03 01:42:39;;;;;;;33.75;29.73;;;;;;;-0.93;100.00;98271.03;2065524;28;20300;-71
2022/04/03 01:43:41;;;;;;;33.07;29.37;;;;;;;-0.97;100.00;98274.34;2065967;28;20201;-71
2022/04/03 01:44:43;;;;;;;32.42;29.17;;;;;;;-0.99;100.00;98271.19;2064663;28;20205;-70
2022/04/03 01:45:48;;;;;;;34.38;30.77;;;;;;;-1.00;100.00;98275.63;2065306;28;20216;-70
2022/04/03 01:46:49;;;;;;;39.88;28.42;;;;;;;-0.99;100.00;98271.19;2065946;28;20193;-70
2022/04/03 01:47:51;;;;;;;35.87;27.60;;;;;;;-0.99;100.00;98271.19;2065960;28;20244;-70
2022/04/03 01:48:52;;;;;;;38.15;28.70;;;;;;;-0.97;100.00;98269.13;2065891;28;20189;-70
2022/04/03 01:49:54;;;;;;;31.83;27.97;;;;;;;-1.01;100.00;98276.66;2066064;28;20196;-71
2022/04/03 01:50:55;;;;;;;32.63;29.33;;;;;;;-1.02;100.00;98274.28;2065464;28;20197;-71
2022/04/03 01:51:58;;;;;;;32.30;29.00;;;;;;;-0.98;100.00;98278.00;2065104;28;20228;-70
2022/04/03 01:53:03;;;;;;;33.75;28.05;;;;;;;-0.99;100.00;98276.41;2056878;28;20213;-69
2022/04/03 01:54:05;;;;;;;36.00;28.45;;;;;;;-0.96;100.00;98283.78;2065538;28;20193;-70
2022/04/03 01:55:07;;;;;;;32.50;28.80;;;;;;;-0.95;100.00;98278.34;2065822;28;20192;-70
2022/04/03 01:56:10;;;;;;;34.40;28.45;;;;;;;-0.89;100.00;98282.59;2065825;28;20275;-70
2022/04/03 01:57:12;;;;;;;31.92;28.08;;;;;;;-0.92;100.00;98271.81;2065113;28;20626;-68
2022/04/03 01:58:15;;;;;;;32.80;29.27;;;;;;;-0.98;100.00;98283.25;2065220;28;20221;-70
2022/04/03 01:59:17;;;;;;;34.33;27.60;;;;;;;-1.00;100.00;98280.06;2064785;28;20232;-71
2022/04/03 02:00:22;;;;;;;36.85;28.50;;;;;;;-1.05;100.00;98282.59;2065264;28;20225;-71
2022/04/03 02:01:23;;;;;;;32.53;29.23;;;;;;;-1.07;100.00;98277.63;2073006;28;20196;-71
2022/04/03 02:02:24;;;;;;;32.23;27.53;;;;;;;-1.03;100.00;98283.19;2064678;28;20247;-71
2022/04/03 02:03:26;;;;;;;31.67;27.00;;;;;;;-1.03;100.00;98278.75;2065244;28;20193;-70
2022/04/03 02:04:28;;;;;;;31.83;28.67;;;;;;;-1.04;100.00;98279.78;2065975;28;20211;-70
2022/04/03 02:05:30;;;;;;;32.67;29.13;;;;;;;-1.06;100.00;98281.03;2065834;28;20228;-71
2022/04/03 02:06:32;;;;;;;31.67;27.30;;;;;;;-1.03;100.00;98280.56;2064756;28;20225;-70
2022/04/03 02:07:33;;;;;;;35.63;29.80;;;;;;;-1.10;100.00;98280.72;2065177;28;20197;-70
2022/04/03 02:08:34;;;;;;;32.07;28.07;;;;;;;-1.09;100.00;98286.75;2065946;28;20730;-70
2022/04/03 02:09:35;;;;;;;31.40;27.63;;;;;;;-1.06;100.00;98288.88;2065869;28;20201;-70
2022/04/03 02:10:37;;;;;;;34.60;30.43;;;;;;;-1.14;100.00;98282.22;2065746;28;20197;-70
2022/04/03 02:11:39;;;;;;;31.63;28.08;;;;;;;-1.05;100.00;98283.41;2065721;28;20196;-70
2022/04/03 02:12:42;;;;;;;30.23;27.13;;;;;;;-0.91;100.00;98286.50;2064573;28;20205;-70
2022/04/03 02:13:44;;;;;;;33.10;29.05;;;;;;;-0.97;100.00;98284.81;2065164;28;20201;-70
2022/04/03 02:14:47;;;;;;;32.33;28.88;;;;;;;-1.08;100.00;98289.13;2064971;28;20207;-71
2022/04/03 02:15:48;;;;;;;31.60;28.20;;;;;;;-1.07;100.00;98284.69;2065910;28;20204;-69
2022/04/03 02:16:49;;;;;;;31.90;28.50;;;;;;;-1.14;100.00;98285.63;2066740;28;20192;-70
2022/04/03 02:17:50;;;;;;;30.52;27.27;;;;;;;-1.16;100.00;98286.91;2066834;28;20196;-70
2022/04/03 02:18:53;;;;;;;31.90;27.40;;;;;;;-1.18;100.00;98289.75;2067712;28;20189;-70
2022/04/03 02:19:54;;;;;;;36.15;28.05;;;;;;;-1.20;100.00;98291.84;2065834;28;20212;-70
2022/04/03 02:21:00;;;;;;;29.73;26.33;;;;;;;-1.19;100.00;98288.19;2066306;28;20252;-70
2022/04/03 02:22:01;;;;;;;37.72;27.90;;;;;;;-1.20;100.00;98293.66;2067361;28;20209;-70
2022/04/03 02:23:03;;;;;;;33.57;26.70;;;;;;;-1.17;100.00;98290.56;2067514;28;20639;-70
2022/04/03 02:24:04;;;;;;;29.65;26.35;;;;;;;-1.05;100.00;98287.84;2074788;28;20231;-70
2022/04/03 02:25:12;;;;;;;37.67;26.93;;;;;;;-1.16;100.00;98289.53;2075149;28;20191;-71
2022/04/03 02:26:14;;;;;;;32.20;27.02;;;;;;;-1.07;100.00;98289.91;2067552;28;20173;-70
2022/04/03 02:27:18;;;;;;;33.58;26.58;;;;;;;-1.11;100.00;98297.47;2067307;28;20553;-70
2022/04/03 02:28:22;;;;;;;30.27;27.55;;;;;;;-1.15;100.00;98289.28;2067275;28;20713;-70
2022/04/03 02:29:24;;;;;;;30.70;27.45;;;;;;;-1.15;100.00;98293.72;2067375;28;20200;-70
2022/04/03 02:30:25;;;;;;;32.90;29.58;;;;;;;-1.18;100.00;98288.97;2067400;28;20192;-71
2022/04/03 02:31:27;;;;;;;32.25;29.02;;;;;;;-1.19;100.00;98284.78;2067346;28;20200;-70
2022/04/03 02:32:30;;;;;;;31.83;29.00;;;;;;;-1.18;100.00;98289.75;2067440;28;20635;-70
2022/04/03 02:33:33;;;;;;;33.78;30.20;;;;;;;-1.24;100.00;98293.31;2067243;28;20570;-70
2022/04/03 02:34:34;;;;;;;30.90;27.90;;;;;;;-1.25;100.00;98296.19;2067237;28;20566;-70
2022/04/03 02:35:36;;;;;;;38.07;28.40;;;;;;;-1.25;100.00;98294.38;2066614;28;20296;-70
2022/04/03 02:36:40;;;;;;;32.80;27.30;;;;;;;-1.28;100.00;98301.91;2066258;28;20228;-70
2022/04/03 02:37:43;;;;;;;29.55;26.42;;;;;;;-1.27;100.00;98287.78;2067269;28;20714;-70
2022/04/03 02:38:44;;;;;;;33.20;28.17;;;;;;;-1.29;100.00;98298.50;2074676;28;20613;-70
2022/04/03 02:39:46;;;;;;;30.88;25.65;;;;;;;-1.30;100.00;98294.28;2066146;28;20203;-70
2022/04/03 02:40:47;;;;;;;31.98;26.77;;;;;;;-1.32;100.00;98300.78;2066857;28;20204;-70
2022/04/03 02:41:50;;;;;;;31.52;27.45;;;;;;;-1.33;100.00;98292.13;2066495;28;20240;-70
2022/04/03 02:42:53;;;;;;;36.08;27.05;;;;;;;-1.27;100.00;98300.88;2058787;28;20197;-70
2022/04/03 02:43:55;;;;;;;29.60;26.30;;;;;;;-1.34;100.00;98295.78;2066579;28;20220;-70
2022/04/03 02:44:56;;;;;;;32.63;26.70;;;;;;;-1.39;100.00;98298.34;2074690;28;20192;-70
2022/04/03 02:45:58;;;;;;;34.70;26.90;;;;;;;-1.38;100.00;98301.75;2066676;28;20220;-71
2022/04/03 02:46:59;;;;;;;30.17;25.90;;;;;;;-1.34;100.00;98306.25;2066611;28;20198;-70
2022/04/03 02:48:06;;;;;;;30.40;26.55;;;;;;;-1.38;100.00;98305.16;2066481;28;20193;-70
2022/04/03 02:49:08;;;;;;;29.52;26.35;;;;;;;-1.36;100.00;98303.09;2067010;28;20189;-71
2022/04/03 02:50:10;;;;;;;32.00;26.58;;;;;;;-1.42;100.00;98309.25;2067122;28;20280;-71
2022/04/03 02:51:12;;;;;;;31.25;27.80;;;;;;;-1.40;100.00;98307.19;2065959;28;20649;-71
2022/04/03 02:52:12;;;;;;;29.23;26.10;;;;;;;-1.42;100.00;98310.06;2066651;28;20205;-70
2022/04/03 02:53:14;;;;;;;35.03;26.07;;;;;;;-1.37;100.00;98314.59;2067115;28;20675;-70
2022/04/03 02:54:16;;;;;;;29.55;25.73;;;;;;;-1.37;100.00;98309.34;2066447;28;20682;-70
2022/04/03 02:55:18;;;;;;;29.13;26.13;;;;;;;-1.44;100.00;98311.31;2058398;28;20305;-70
2022/04/03 02:56:19;;;;;;;29.98;26.77;;;;;;;-1.43;100.00;98315.53;2066466;28;20193;-71
2022/04/03 02:57:21;;;;;;;37.13;27.33;;;;;;;-1.33;100.00;98317.50;2066448;28;20189;-70
2022/04/03 02:58:23;;;;;;;30.67;27.60;;;;;;;-1.37;100.00;98319.03;2066656;28;20204;-70
2022/04/03 02:59:25;;;;;;;33.28;26.77;;;;;;;-1.38;100.00;98320.06;2066366;28;20201;-70
2022/04/03 03:00:26;;;;;;;32.17;27.63;;;;;;;-1.42;100.00;98317.91;2058305;28;20197;-70
2022/04/03 03:01:28;;;;;;;30.33;27.13;;;;;;;-1.47;100.00;98320.44;2066663;28;20235;-70
2022/04/03 03:02:31;;;;;;;34.80;28.80;;;;;;;-1.46;100.00;98318.63;2066386;28;20464;-70
2022/04/03 03:03:34;;;;;;;33.70;28.77;;;;;;;-1.50;100.00;98325.34;2066472;28;20185;-70
2022/04/03 03:04:35;;;;;;;31.15;27.92;;;;;;;-1.48;100.00;98316.25;2066334;28;20228;-70
2022/04/03 03:05:38;;;;;;;32.88;28.75;;;;;;;-1.48;100.00;98315.44;2066397;28;20651;-70
2022/04/03 03:06:40;;;;;;;33.47;29.92;;;;;;;-1.54;100.00;98322.41;2074019;28;20216;-70
2022/04/03 03:07:45;;;;;;;34.28;31.08;;;;;;;-1.56;100.00;98319.25;2065947;28;20201;-71
2022/04/03 03:08:47;;;;;;;34.92;31.73;;;;;;;-1.53;100.00;98328.44;2058563;28;20276;-70
2022/04/03 03:09:48;;;;;;;32.50;29.08;;;;;;;-1.54;100.00;98327.66;2066432;28;20201;-70
2022/04/03 03:10:50;;;;;;;33.47;30.13;;;;;;;-1.55;100.00;98320.84;2066984;28;20226;-70
2022/04/03 03:11:51;;;;;;;31.02;28.02;;;;;;;-1.50;100.00;98317.50;2067116;28;20204;-70
2022/04/03 03:12:53;;;;;;;31.73;28.73;;;;;;;-1.43;100.00;98326.78;2067253;28;20220;-71
2022/04/03 03:13:55;;;;;;;31.05;27.75;;;;;;;-1.41;100.00;98326.53;2067022;28;20610;-70
2022/04/03 03:14:57;;;;;;;30.58;27.40;;;;;;;-1.42;100.00;98324.94;2067147;28;20192;-70
2022/04/03 03:15:58;;;;;;;31.38;26.38;;;;;;;-1.38;100.00;98327.91;2065785;28;20204;-70
2022/04/03 03:17:03;;;;;;;30.67;25.77;;;;;;;-1.34;100.00;98336.84;2058248;28;20204;-71
2022/04/03 03:18:04;;;;;;;31.42;27.73;;;;;;;-1.38;100.00;98333.94;2066462;28;20694;-70
2022/04/03 03:19:05;;;;;;;29.77;26.57;;;;;;;-1.39;100.00;98332.34;2066935;28;20630;-70
2022/04/03 03:20:07;;;;;;;30.17;27.00;;;;;;;-1.45;100.00;98334.06;2066984;28;20201;-70
2022/04/03 03:21:10;;;;;;;32.83;26.90;;;;;;;-1.52;100.00;98336.03;2066569;28;20699;-70
2022/04/03 03:22:12;;;;;;;34.17;28.48;;;;;;;-1.56;100.00;98340.16;2066917;28;20213;-70
2022/04/03 03:23:16;;;;;;;31.70;28.60;;;;;;;-1.56;100.00;98339.38;2066947;28;20660;-70
2022/04/03 03:24:17;;;;;;;31.10;27.92;;;;;;;-1.60;100.00;98333.00;2074168;28;20625;-70
2022/04/03 03:25:19;;;;;;;31.55;26.92;;;;;;;-1.62;100.00;98335.06;2074655;28;20685;-70
2022/04/03 03:26:21;;;;;;;32.50;29.35;;;;;;;-1.59;100.00;98345.84;2067043;28;20197;-70
2022/04/03 03:27:23;;;;;;;30.50;26.57;;;;;;;-1.48;100.00;98347.63;2065743;28;20247;-71
2022/04/03 03:28:25;;;;;;;29.77;26.75;;;;;;;-1.47;100.00;98344.00;2066244;28;20193;-71
2022/04/03 03:29:28;;;;;;;35.47;27.52;;;;;;;-1.46;100.00;98344.78;2065479;28;20201;-70
2022/04/03 03:30:30;;;;;;;31.50;28.15;;;;;;;-1.54;100.00;98345.16;2066314;28;20236;-70
2022/04/03 03:31:33;;;;;;;31.45;27.65;;;;;;;-1.53;100.00;98341.50;2066114;28;20683;-70
2022/04/03 03:32:34;;;;;;;29.90;26.75;;;;;;;-1.54;100.00;98350.41;2066271;28;20633;-70
2022/04/03 03:33:35;;;;;;;29.48;26.65;;;;;;;-1.60;100.00;98344.25;2066089;28;20235;-70
2022/04/03 03:34:37;;;;;;;29.55;26.63;;;;;;;-1.71;100.00;98347.75;2058220;28;20201;-70
2022/04/03 03:35:39;;;;;;;31.55;28.20;;;;;;;-1.74;100.00;98345.56;2066296;28;20193;-71
2022/04/03 03:36:41;;;;;;;32.88;29.70;;;;;;;-1.69;100.00;98347.50;2066725;28;20690;-70
2022/04/03 03:37:44;;;;;;;33.05;29.90;;;;;;;-1.69;100.00;98358.75;2066108;28;20209;-70
2022/04/03 03:38:45;;;;;;;33.33;29.85;;;;;;;-1.69;100.00;98353.53;2066530;28;20193;-71
2022/04/03 03:39:47;;;;;;;31.73;28.80;;;;;;;-1.69;100.00;98350.13;2066880;28;20564;-70
2022/04/03 03:40:48;;;;;;;32.30;29.17;;;;;;;-1.68;100.00;98356.94;2074307;28;20702;-70
2022/04/03 03:41:49;;;;;;;32.33;29.27;;;;;;;-1.78;100.00;98349.69;2066105;28;20201;-71
2022/04/03 03:42:52;;;;;;;35.63;32.23;;;;;;;-1.80;100.00;98354.38;2066285;28;20189;-70
2022/04/03 03:43:53;;;;;;;31.42;28.00;;;;;;;-1.86;100.00;98360.50;2067050;28;20181;-70
2022/04/03 03:44:57;;;;;;;31.20;28.00;;;;;;;-1.88;100.00;98365.97;2066764;28;20227;-70
2022/04/03 03:45:58;;;;;;;32.10;28.92;;;;;;;-1.90;100.00;98360.19;2066854;28;20605;-70
2022/04/03 03:46:59;;;;;;;30.93;27.70;;;;;;;-1.92;100.00;98364.84;2066869;28;20185;-70
2022/04/03 03:48:00;;;;;;;30.45;27.70;;;;;;;-1.96;100.00;98368.97;2074045;28;20208;-70
2022/04/03 03:49:02;;;;;;;33.40;30.20;;;;;;;-2.02;100.00;98360.22;2074322;28;20299;-70
2022/04/03 03:50:04;;;;;;;30.17;27.17;;;;;;;-1.87;100.00;98364.16;2065686;28;20200;-70
2022/04/03 03:51:06;;;;;;;32.05;28.67;;;;;;;-1.89;100.00;98361.78;2065685;28;20193;-71
2022/04/03 03:52:07;;;;;;;32.78;28.48;;;;;;;-1.74;100.00;98369.91;2066833;28;20173;-71
2022/04/03 03:53:09;;;;;;;31.83;28.30;;;;;;;-1.78;100.00;98368.78;2066729;28;20200;-70
2022/04/03 03:54:10;;;;;;;31.50;28.30;;;;;;;-1.81;100.00;98376.31;2066721;28;20881;-70
2022/04/03 03:55:12;;;;;;;35.10;29.33;;;;;;;-1.87;100.00;98364.16;2066111;28;20343;-70
2022/04/03 03:56:13;;;;;;;32.67;29.42;;;;;;;-1.82;100.00;98372.91;2066117;28;20659;-70
2022/04/03 03:57:17;;;;;;;33.00;28.20;;;;;;;-1.87;100.00;98375.41;2065658;28;20634;-70
2022/04/03 03:58:19;;;;;;;32.40;29.13;;;;;;;-1.96;100.00;98382.03;2066367;28;20431;-70
2022/04/03 03:59:21;;;;;;;31.35;28.20;;;;;;;-1.99;100.00;98385.13;2066874;28;20544;-70
2022/04/03 04:00:25;;;;;;;33.03;29.67;;;;;;;-2.01;100.00;98376.69;2066859;28;20197;-71
2022/04/03 04:01:27;;;;;;;32.58;29.58;;;;;;;-2.04;100.00;98379.78;2066623;28;20207;-70
2022/04/03 04:02:28;;;;;;;31.73;28.50;;;;;;;-2.10;100.00;98380.69;2065950;28;20197;-71
2022/04/03 04:03:31;;;;;;;29.77;26.88;;;;;;;-2.03;100.00;98378.75;2065901;28;20200;-70
2022/04/03 04:04:34;;;;;;;30.25;27.25;;;;;;;-2.02;100.00;98383.72;2065456;28;20197;-70
2022/04/03 04:05:35;;;;;;;29.15;26.30;;;;;;;-1.99;100.00;98387.72;2073950;28;20659;-69
2022/04/03 04:06:41;;;;;;;31.20;27.88;;;;;;;-1.92;100.00;98388.38;2065624;28;20312;-70
2022/04/03 04:07:43;;;;;;;31.27;28.15;;;;;;;-1.89;100.00;98397.59;2066087;28;20228;-71
2022/04/03 04:08:45;;;;;;;32.03;28.83;;;;;;;-1.94;100.00;98385.19;2065981;28;20666;-70
2022/04/03 04:09:45;;;;;;;29.23;26.13;;;;;;;-1.99;100.00;98390.34;2066057;28;20288;-70
2022/04/03 04:10:47;;;;;;;29.57;26.63;;;;;;;-2.05;100.00;98393.88;2066568;28;20648;-71
2022/04/03 04:11:49;;;;;;;30.67;27.52;;;;;;;-2.06;100.00;98394.91;2066750;28;20208;-70
2022/04/03 04:12:50;;;;;;;30.33;26.80;;;;;;;-2.12;100.00;98395.81;2066648;28;20212;-71
2022/04/03 04:13:51;;;;;;;33.53;30.35;;;;;;;-2.11;100.00;98395.56;2065316;28;20212;-70
2022/04/03 04:14:53;;;;;;;31.30;28.47;;;;;;;-2.11;100.00;98395.56;2057773;28;20301;-70
2022/04/03 04:15:55;;;;;;;29.77;26.75;;;;;;;-2.08;100.00;98395.13;2065878;28;20197;-70
2022/04/03 04:16:57;;;;;;;28.80;26.00;;;;;;;-2.01;100.00;98403.63;2065887;28;20196;-70
2022/04/03 04:17:58;;;;;;;30.90;27.70;;;;;;;-2.02;100.00;98403.84;2057823;28;20333;-70
2022/04/03 04:19:01;;;;;;;28.42;25.48;;;;;;;-2.02;100.00;98404.66;2065893;28;20189;-70
2022/04/03 04:20:06;;;;;;;29.83;26.52;;;;;;;-2.09;100.00;98405.78;2073891;28;20711;-70
2022/04/03 04:21:08;;;;;;;28.92;25.88;;;;;;;-2.11;100.00;98402.63;2073068;28;20192;-70
2022/04/03 04:22:09;;;;;;;29.27;26.38;;;;;;;-2.18;100.00;98405.34;2066396;28;20209;-71
2022/04/03 04:23:10;;;;;;;29.57;26.77;;;;;;;-2.15;100.00;98404.13;2066408;28;20244;-70
2022/04/03 04:24:14;;;;;;;30.45;27.33;;;;;;;-2.19;100.00;98409.00;2066342;28;20225;-70
2022/04/03 04:25:19;;;;;;;33.08;25.70;;;;;;;-2.15;100.00;98411.97;2065824;28;20296;-70
2022/04/03 04:26:20;;;;;;;29.27;25.95;;;;;;;-2.15;100.00;98411.97;2065844;28;20220;-71
2022/04/03 04:27:22;;;;;;;31.77;28.37;;;;;;;-2.14;100.00;98414.34;2066367;28;20189;-71
2022/04/03 04:28:23;;;;;;;28.90;25.83;;;;;;;-2.17;100.00;98416.59;2066369;28;20440;-70
2022/04/03 04:29:25;;;;;;;28.97;26.07;;;;;;;-2.21;100.00;98413.66;2066440;28;20656;-70
2022/04/03 04:30:26;;;;;;;28.40;25.50;;;;;;;-2.22;100.00;98412.06;2066502;28;20300;-70
2022/04/03 04:31:29;;;;;;;29.30;26.43;;;;;;;-2.22;100.00;98412.06;2066435;28;20220;-70
2022/04/03 04:32:32;;;;;;;30.92;27.58;;;;;;;-2.18;100.00;98422.84;2066600;28;20173;-71
2022/04/03 04:33:36;;;;;;;30.17;27.30;;;;;;;-2.18;100.00;98421.03;2066306;28;20265;-70
2022/04/03 04:34:37;;;;;;;31.13;28.13;;;;;;;-2.21;100.00;98420.69;2073812;28;20196;-70
2022/04/03 04:35:39;;;;;;;31.70;28.90;;;;;;;-2.15;100.00;98423.19;2065790;28;20197;-70
2022/04/03 04:36:39;;;;;;;32.92;29.48;;;;;;;-2.12;100.00;98427.16;2065492;28;20221;-71
2022/04/03 04:37:42;;;;;;;33.57;30.77;;;;;;;-2.11;100.00;98420.91;2066288;28;20220;-70
2022/04/03 04:38:43;;;;;;;34.03;31.13;;;;;;;-2.13;100.00;98428.19;2066105;28;20204;-71
2022/04/03 04:39:46;;;;;;;35.53;31.80;;;;;;;-2.12;100.00;98432.41;2064534;28;20656;-70
2022/04/03 04:40:47;;;;;;;32.75;29.02;;;;;;;-2.10;100.00;98432.94;2057049;28;20206;-70
2022/04/03 04:41:51;;;;;;;32.38;29.38;;;;;;;-2.11;100.00;98437.38;2065832;28;20193;-71
2022/04/03 04:42:51;;;;;;;34.20;29.08;;;;;;;-2.12;100.00;98435.00;2065700;28;20204;-71